This is the latest recevied weather packets stored in our database for station/object LKTB. If no packets are shown the sender has not sent any weather packets the latest 1 day(s).
| Time | Temp. | Humidity | Pressure | Rain* | Wind** | Luminosity | Snow |
|---|---|---|---|---|---|---|---|
| 1777962743 | 17.22° C | 42% | 1010 hPa | - | 4.02 m/s, 120° | - | - |
| 1777962068 | 16.11° C | 44% | - | - | 3.13 m/s, 90° | - | - |
| 1777960945 | 16.11° C | 44% | 1009 hPa | - | 4.02 m/s, 90° | - | - |
| 1777959133 | 13.89° C | 47% | 1009 hPa | - | 3.58 m/s, 80° | - | - |
| 1777958466 | 12.22° C | 50% | - | - | 4.02 m/s, 70° | - | - |
| 1777957351 | 12.22° C | 50% | 1009 hPa | - | 3.13 m/s, 80° | - | - |
| 1777955537 | 12.78° C | 47% | 1009 hPa | - | 3.13 m/s, 70° | - | - |
| 1777954867 | 12.78° C | 47% | - | - | 3.13 m/s, 70° | - | - |
| 1777953745 | 12.22° C | 50% | 1009 hPa | - | 2.24 m/s, 90° | - | - |
| 1777951937 | 12.78° C | 47% | 1009 hPa | - | 3.13 m/s, 80° | - | - |
| 1777951266 | 12.78° C | 43% | - | - | 4.02 m/s, 100° | - | - |
| 1777950146 | 12.78° C | 43% | 1010 hPa | - | 1.34 m/s, 90° | - | - |
| 1777948337 | 13.89° C | 41% | 1010 hPa | - | 2.68 m/s, 90° | - | - |
| 1777947666 | 12.78° C | 43% | - | - | 3.13 m/s, 100° | - | - |
| 1777946544 | 13.89° C | 41% | 1010 hPa | - | 3.58 m/s, 80° | - | - |
| 1777944737 | 13.89° C | 44% | 1010 hPa | - | 2.24 m/s, 100° | - | - |
| 1777944069 | 15° C | 41% | - | - | 2.24 m/s, 80° | - | - |
| 1777942945 | 15° C | 41% | 1010 hPa | - | 2.24 m/s, 70° | - | - |
| 1777941137 | 17.22° C | 36% | 1011 hPa | - | 2.68 m/s, 90° | - | - |
| 1777940467 | 16.11° C | 36% | - | - | 3.13 m/s, 40° | - | - |
| 1777939346 | 16.11° C | 38% | 1011 hPa | - | 2.68 m/s, 80° | - | - |
| 1777937537 | 17.22° C | 36% | 1011 hPa | - | 4.02 m/s, 90° | - | - |
| 1777936898 | 16.11° C | 38% | - | - | 4.02 m/s, 90° | - | - |
| 1777935753 | 16.11° C | 38% | 1011 hPa | - | 5.36 m/s, 90° | - | - |
| 1777933943 | 16.11° C | 38% | 1011 hPa | - | 5.36 m/s, 90° | - | - |
* Rain since midnight (hover to see other rain measurements)
** Current wind speed in m/s (hover to see current wind gust speed)